createdAt,value
2019-02-28T00:01:19.955Z,3.70
2019-02-28T00:03:49.157Z,4.20
2019-02-28T00:06:18.401Z,3.10
2019-02-28T00:08:47.609Z,3.83
2019-02-28T00:13:55.835Z,3.67
2019-02-28T00:16:23.409Z,4.23
2019-02-28T00:18:52.612Z,3.77
2019-02-28T00:21:41.350Z,3.77
2019-02-28T00:24:11.871Z,3.63
2019-02-28T00:26:46.512Z,3.57
2019-02-28T00:29:12.046Z,2.37
2019-02-28T00:31:41.296Z,4.00
2019-02-28T00:34:10.477Z,3.67
2019-02-28T00:36:39.736Z,4.00
2019-02-28T00:39:09.059Z,4.40
2019-02-28T00:41:43.131Z,2.23
2019-02-28T00:44:09.237Z,3.97
2019-02-28T00:46:44.071Z,2.27
2019-02-28T00:49:09.417Z,2.23
2019-02-28T00:51:39.046Z,3.10
2019-02-28T00:54:09.393Z,3.50
2019-02-28T00:56:39.525Z,4.20
2019-02-28T00:59:08.715Z,3.70
2019-02-28T01:01:37.985Z,3.00
2019-02-28T01:04:07.183Z,6.77
2019-02-28T01:06:36.671Z,2.73
2019-02-28T01:09:45.836Z,2.30
2019-02-28T01:12:18.735Z,4.17
2019-02-28T01:14:46.011Z,1.87
2019-02-28T01:17:15.305Z,1.57
2019-02-28T01:19:44.488Z,3.20
2019-02-28T01:22:13.739Z,3.13
2019-02-28T01:24:42.963Z,3.30
2019-02-28T01:27:12.137Z,2.03
2019-02-28T01:29:41.383Z,3.00
2019-02-28T01:32:15.200Z,3.40
2019-02-28T01:34:41.908Z,1.90
2019-02-28T01:37:11.482Z,2.83
2019-02-28T01:39:40.736Z,3.00
2019-02-28T01:42:09.923Z,1.87
2019-02-28T01:44:39.188Z,2.63
2019-02-28T01:47:08.385Z,2.27
2019-02-28T01:49:37.652Z,2.57
2019-02-28T01:52:09.618Z,2.53
2019-02-28T01:54:37.759Z,2.33
2019-02-28T01:57:08.966Z,4.63
2019-02-28T01:59:38.258Z,3.40
2019-02-28T02:02:07.515Z,2.60
2019-02-28T02:04:36.700Z,3.70
2019-02-28T02:07:05.953Z,4.57
2019-02-28T02:09:35.143Z,2.60
2019-02-28T02:12:04.755Z,2.60
2019-02-28T02:14:33.942Z,3.00
2019-02-28T02:17:03.229Z,3.17
2019-02-28T02:19:32.441Z,2.40
2019-02-28T02:22:01.695Z,2.70
2019-02-28T02:24:30.889Z,3.17
2019-02-28T02:27:00.118Z,2.40
2019-02-28T02:29:29.310Z,3.13
2019-02-28T02:32:00.997Z,3.80
2019-02-28T02:34:29.733Z,3.30
2019-02-28T02:37:00.445Z,2.47
2019-02-28T02:39:29.651Z,1.93
2019-02-28T02:41:58.900Z,2.10
2019-02-28T02:44:31.826Z,2.13
2019-02-28T02:46:59.064Z,2.00
2019-02-28T02:49:28.299Z,2.03
2019-02-28T02:51:57.543Z,2.27
2019-02-28T02:54:26.735Z,2.30
2019-02-28T02:56:55.978Z,2.70
2019-02-28T02:59:25.184Z,2.20
2019-02-28T03:01:56.181Z,1.53
2019-02-28T03:04:25.322Z,2.47
2019-02-28T03:06:54.564Z,1.77
2019-02-28T03:09:23.754Z,1.83
2019-02-28T03:11:57.623Z,2.03
2019-02-28T03:14:24.296Z,3.67
2019-02-28T03:16:53.613Z,1.90
2019-02-28T03:19:22.793Z,2.50
2019-02-28T03:21:52.993Z,2.47
2019-02-28T03:24:22.944Z,4.03
2019-02-28T03:26:52.210Z,2.57
2019-02-28T03:29:21.382Z,3.03
2019-02-28T03:31:56.756Z,2.97
2019-02-28T03:34:21.548Z,2.47
2019-02-28T03:36:55.726Z,3.17
2019-02-28T03:39:24.548Z,2.23
2019-02-28T03:42:03.056Z,2.33
2019-02-28T03:44:32.639Z,3.03
2019-02-28T03:47:01.904Z,2.07
2019-02-28T03:49:31.092Z,3.10
2019-02-28T03:52:05.400Z,2.57
2019-02-28T03:54:31.267Z,3.57
2019-02-28T03:57:00.467Z,9.17
2019-02-28T03:59:29.712Z,6.57
2019-02-28T04:01:58.903Z,4.33
2019-02-28T04:04:28.146Z,4.50
2019-02-28T04:06:57.338Z,3.17
2019-02-28T04:09:26.604Z,2.53
2019-02-28T04:11:55.801Z,3.20
2019-02-28T04:14:28.603Z,3.50
2019-02-28T04:16:56.036Z,2.37
2019-02-28T04:19:25.275Z,1.33
2019-02-28T04:21:54.469Z,1.77
2019-02-28T04:24:23.707Z,1.77
2019-02-28T04:26:52.901Z,2.90
2019-02-28T04:29:22.149Z,2.43
2019-02-28T04:31:52.499Z,2.80
2019-02-28T04:34:22.688Z,1.20
2019-02-28T04:36:51.890Z,1.73
2019-02-28T04:39:22.741Z,2.07
2019-02-28T04:41:52.068Z,1.07
2019-02-28T04:44:21.319Z,2.10
2019-02-28T04:46:50.517Z,2.17
2019-02-28T04:49:22.756Z,2.37
2019-02-28T04:51:50.688Z,4.10
2019-02-28T04:54:19.935Z,1.77
2019-02-28T04:56:49.137Z,1.33
2019-02-28T04:59:18.394Z,2.63
2019-02-28T05:01:47.586Z,1.83
2019-02-28T05:04:18.653Z,3.00
2019-02-28T05:06:52.143Z,2.50
2019-02-28T05:09:20.325Z,2.57
2019-02-28T05:11:49.531Z,1.80
2019-02-28T05:14:23.489Z,1.67
2019-02-28T05:16:49.768Z,1.20
2019-02-28T05:19:19.023Z,2.80
2019-02-28T05:21:50.640Z,2.50
2019-02-28T05:24:19.193Z,5.97
2019-02-28T05:26:48.372Z,2.83
2019-02-28T05:29:17.611Z,3.50
2019-02-28T05:31:47.235Z,3.17
2019-02-28T05:34:16.849Z,4.20
2019-02-28T05:36:46.371Z,2.27
2019-02-28T05:39:15.974Z,3.50
2019-02-28T05:41:49.119Z,2.80
2019-02-28T05:46:51.294Z,4.40
2019-02-28T05:49:20.537Z,2.50
2019-02-28T05:51:49.739Z,2.43
2019-02-28T05:54:38.766Z,3.80
2019-02-28T05:57:08.879Z,2.43
2019-02-28T05:59:38.253Z,2.83
2019-02-28T06:02:07.491Z,2.57
2019-02-28T06:04:37.818Z,2.93
2019-02-28T06:07:09.448Z,2.67
2019-02-28T06:09:39.099Z,3.60
2019-02-28T06:12:09.550Z,7.27
2019-02-28T06:14:39.334Z,3.47
2019-02-28T06:17:08.585Z,4.87
2019-02-28T06:19:40.208Z,4.47
2019-02-28T06:22:08.742Z,6.27
2019-02-28T06:24:38.000Z,5.70
2019-02-28T06:27:07.628Z,4.50
2019-02-28T06:29:38.240Z,3.93
2019-02-28T06:32:07.432Z,5.30
2019-02-28T06:34:39.430Z,5.37
2019-02-28T06:37:07.600Z,6.33
2019-02-28T06:39:37.579Z,4.77
2019-02-28T06:42:08.106Z,5.17
2019-02-28T06:44:37.286Z,5.90
2019-02-28T06:47:06.546Z,5.13
2019-02-28T06:52:25.299Z,4.50
2019-02-28T06:54:54.919Z,5.77
2019-02-28T06:57:26.901Z,5.70
2019-02-28T06:59:55.085Z,6.33
2019-02-28T07:02:24.328Z,6.03
2019-02-28T07:04:53.630Z,7.70
2019-02-28T07:07:22.875Z,7.47
2019-02-28T07:09:52.418Z,9.50
2019-02-28T07:12:21.665Z,6.87
2019-02-28T07:14:50.836Z,9.70
2019-02-28T07:17:20.119Z,8.73
2019-02-28T07:19:49.308Z,9.93
2019-02-28T07:22:19.634Z,9.40
2019-02-28T07:24:49.480Z,8.70
2019-02-28T07:27:19.057Z,8.70
2019-02-28T07:29:48.319Z,9.13
2019-02-28T07:32:18.267Z,11.90
2019-02-28T07:34:47.785Z,9.87
2019-02-28T07:37:19.026Z,9.60
2019-02-28T07:39:47.947Z,9.03
2019-02-28T07:42:17.191Z,6.87
2019-02-28T07:44:46.391Z,11.23
2019-02-28T07:47:17.566Z,10.70
2019-02-28T07:49:46.541Z,9.73
2019-02-28T07:52:15.798Z,10.23
2019-02-28T07:54:47.522Z,11.40
2019-02-28T07:57:17.311Z,10.63
2019-02-28T07:59:47.218Z,11.20
2019-02-28T08:02:16.464Z,8.37
2019-02-28T08:04:45.770Z,11.30
2019-02-28T08:07:15.767Z,12.90
2019-02-28T08:09:46.346Z,12.47
2019-02-28T08:12:15.605Z,11.97
2019-02-28T08:14:47.093Z,12.63
2019-02-28T08:17:15.799Z,12.60
2019-02-28T08:19:44.981Z,15.20
2019-02-28T08:22:14.244Z,14.13
2019-02-28T08:24:43.422Z,13.97
2019-02-28T08:27:12.717Z,12.27
2019-02-28T08:29:44.723Z,13.57
2019-02-28T08:32:12.832Z,13.43
2019-02-28T08:34:42.025Z,16.87
2019-02-28T08:37:11.230Z,12.87
2019-02-28T08:39:41.187Z,12.10
2019-02-28T08:42:11.472Z,13.93
2019-02-28T08:44:40.699Z,13.47
2019-02-28T08:47:11.506Z,12.83
2019-02-28T08:49:44.701Z,16.80
2019-02-28T08:52:11.750Z,13.03
2019-02-28T08:54:40.997Z,11.00
2019-02-28T08:57:10.610Z,11.37
2019-02-28T08:59:39.863Z,13.10
2019-02-28T09:02:09.085Z,13.17
2019-02-28T09:04:41.312Z,15.23
2019-02-28T09:07:09.257Z,18.63
2019-02-28T09:12:13.688Z,16.07
2019-02-28T09:14:42.927Z,13.97
2019-02-28T09:17:12.165Z,12.63
2019-02-28T09:19:41.417Z,14.43
2019-02-28T09:22:10.607Z,13.83
2019-02-28T09:24:39.844Z,14.80
2019-02-28T09:27:09.022Z,15.63
2019-02-28T09:29:38.263Z,13.97
2019-02-28T09:32:10.191Z,15.13
2019-02-28T09:34:38.447Z,17.00
2019-02-28T09:37:07.638Z,11.90
2019-02-28T09:39:37.279Z,13.97
2019-02-28T09:42:06.474Z,13.67
2019-02-28T09:44:35.748Z,14.00
2019-02-28T09:47:04.953Z,19.57
2019-02-28T09:49:34.202Z,12.37
2019-02-28T09:52:06.309Z,11.23
2019-02-28T09:54:34.388Z,10.30
2019-02-28T09:57:03.584Z,13.53
2019-02-28T09:59:37.358Z,13.57
2019-02-28T10:02:08.084Z,12.00
2019-02-28T10:04:34.706Z,12.57
2019-02-28T10:07:03.921Z,13.20
2019-02-28T10:09:33.159Z,11.03
2019-02-28T10:12:04.699Z,12.43
2019-02-28T10:14:34.618Z,13.30
2019-02-28T10:17:04.631Z,11.67
2019-02-28T10:19:40.778Z,11.63
2019-02-28T10:22:04.816Z,11.80
2019-02-28T10:24:34.078Z,13.77
2019-02-28T10:27:03.571Z,14.23
2019-02-28T10:29:34.277Z,10.80
2019-02-28T10:32:06.175Z,13.20
2019-02-28T10:34:35.402Z,14.07
2019-02-28T10:37:05.351Z,14.80
2019-02-28T10:39:34.547Z,11.70
2019-02-28T10:42:05.150Z,9.40
2019-02-28T10:44:34.722Z,11.90
2019-02-28T10:47:04.003Z,13.50
2019-02-28T10:49:33.196Z,11.43
2019-02-28T10:52:02.540Z,15.23
2019-02-28T10:54:31.745Z,14.73
2019-02-28T10:57:03.023Z,16.87
2019-02-28T10:59:32.008Z,12.73
2019-02-28T11:02:01.260Z,13.97
2019-02-28T11:04:30.459Z,11.93
2019-02-28T11:07:02.349Z,13.80
2019-02-28T11:09:30.662Z,15.53
2019-02-28T11:12:00.408Z,10.37
2019-02-28T11:14:29.589Z,13.50
2019-02-28T11:17:00.353Z,11.20
2019-02-28T11:19:30.818Z,14.27
2019-02-28T11:22:01.502Z,13.77
2019-02-28T11:24:31.016Z,10.97
2019-02-28T11:27:00.373Z,13.80
2019-02-28T11:29:29.565Z,13.10
2019-02-28T11:31:59.086Z,12.70
2019-02-28T11:37:37.012Z,13.83
2019-02-28T11:40:08.542Z,11.73
2019-02-28T11:42:37.386Z,14.47
2019-02-28T11:45:28.263Z,15.03
2019-02-28T11:47:59.104Z,12.93
2019-02-28T11:50:28.293Z,13.93
2019-02-28T11:53:03.133Z,14.27
2019-02-28T11:58:37.112Z,12.27
2019-02-28T12:01:47.390Z,13.93
2019-02-28T12:04:16.665Z,12.73
2019-02-28T12:06:46.224Z,10.23
2019-02-28T12:09:16.322Z,10.60
2019-02-28T12:11:46.843Z,13.60
2019-02-28T12:14:16.049Z,12.30
2019-02-28T12:16:45.382Z,13.30
2019-02-28T12:19:15.856Z,14.23
2019-02-28T12:21:45.567Z,11.10
2019-02-28T12:24:14.899Z,15.20
2019-02-28T12:26:44.143Z,12.30
2019-02-28T12:29:13.865Z,14.77
2019-02-28T12:31:44.373Z,13.73
2019-02-28T12:34:15.091Z,12.57
2019-02-28T12:36:46.286Z,12.43
2019-02-28T12:39:16.114Z,13.13
2019-02-28T12:41:45.378Z,15.27
2019-02-28T12:44:15.393Z,14.73
2019-02-28T12:46:45.779Z,14.07
2019-02-28T12:49:15.049Z,10.87
2019-02-28T12:51:44.260Z,15.57
2019-02-28T12:54:13.516Z,15.60
2019-02-28T12:56:45.174Z,17.33
2019-02-28T12:59:13.716Z,11.60
2019-02-28T13:01:42.925Z,13.70
2019-02-28T13:04:12.168Z,12.07
2019-02-28T13:06:41.377Z,16.43
2019-02-28T13:09:13.653Z,14.23
2019-02-28T13:11:41.583Z,11.23
2019-02-28T13:14:10.843Z,20.07
2019-02-28T13:16:40.454Z,13.83
2019-02-28T13:19:49.135Z,14.03
2019-02-28T13:22:18.820Z,13.23
2019-02-28T13:24:49.594Z,12.77
2019-02-28T13:27:18.783Z,15.63
2019-02-28T13:29:48.041Z,15.97
2019-02-28T13:32:17.641Z,13.10
2019-02-28T13:34:46.865Z,11.17
2019-02-28T13:37:16.065Z,14.27
2019-02-28T13:39:45.628Z,17.30
2019-02-28T13:42:14.822Z,16.27
2019-02-28T13:44:44.115Z,13.30
2019-02-28T13:47:13.291Z,13.63
2019-02-28T13:49:42.547Z,16.87
2019-02-28T13:52:19.037Z,14.00
2019-02-28T13:54:44.098Z,14.57
2019-02-28T13:57:13.305Z,16.03
2019-02-28T13:59:42.578Z,14.73
2019-02-28T14:02:13.617Z,16.03
2019-02-28T14:04:43.401Z,15.57
2019-02-28T14:07:12.711Z,16.90
2019-02-28T14:09:41.947Z,16.27
2019-02-28T14:12:11.178Z,14.23
2019-02-28T14:14:42.281Z,14.27
2019-02-28T14:17:22.789Z,15.33
2019-02-28T14:19:52.705Z,16.67
2019-02-28T14:22:23.052Z,16.07
2019-02-28T14:24:52.320Z,12.90
2019-02-28T14:27:24.833Z,13.13
2019-02-28T14:29:52.521Z,14.33
2019-02-28T14:32:21.723Z,14.60
2019-02-28T14:34:50.964Z,14.47
2019-02-28T14:37:20.469Z,14.73
2019-02-28T14:39:51.170Z,14.90
2019-02-28T14:42:20.604Z,15.63
2019-02-28T14:44:49.835Z,19.30
2019-02-28T14:47:19.091Z,13.53
2019-02-28T14:49:48.396Z,12.37
2019-02-28T14:52:17.723Z,15.83
2019-02-28T14:54:46.918Z,13.70
2019-02-28T14:57:16.630Z,12.97
2019-02-28T14:59:47.146Z,14.30
2019-02-28T15:04:51.615Z,13.60
2019-02-28T15:07:20.877Z,12.43
2019-02-28T15:09:50.137Z,12.67
2019-02-28T15:12:38.584Z,15.37
2019-02-28T15:15:10.341Z,15.23
2019-02-28T15:17:41.939Z,12.03
2019-02-28T15:22:59.803Z,13.43
2019-02-28T15:25:30.466Z,14.07
2019-02-28T15:27:59.750Z,14.90
2019-02-28T15:30:33.608Z,17.23
2019-02-28T15:33:01.483Z,14.67
2019-02-28T15:35:30.686Z,11.63
2019-02-28T15:38:00.005Z,13.00
2019-02-28T15:40:31.511Z,11.53
2019-02-28T15:43:00.775Z,12.33
2019-02-28T15:45:29.991Z,13.87
2019-02-28T15:48:18.331Z,14.67
2019-02-28T15:50:51.234Z,10.97
2019-02-28T15:53:18.574Z,13.27
2019-02-28T15:55:47.877Z,14.40
2019-02-28T15:58:17.168Z,13.73
2019-02-28T16:00:46.382Z,13.63
2019-02-28T16:03:16.827Z,14.33
2019-02-28T16:05:46.581Z,13.13
2019-02-28T16:08:15.844Z,12.60
2019-02-28T16:11:06.321Z,11.73
2019-02-28T16:13:35.451Z,13.40
2019-02-28T16:16:04.993Z,11.87
2019-02-28T16:18:34.942Z,13.37
2019-02-28T16:21:07.284Z,12.17
2019-02-28T16:23:35.192Z,13.83
2019-02-28T16:26:04.874Z,14.07
2019-02-28T16:28:34.100Z,13.97
2019-02-28T16:31:06.535Z,14.13
2019-02-28T16:33:34.864Z,10.63
2019-02-28T16:36:04.073Z,12.00
2019-02-28T16:38:33.353Z,10.87
2019-02-28T16:41:02.860Z,12.03
2019-02-28T16:43:33.967Z,11.57
2019-02-28T16:46:03.463Z,11.27
2019-02-28T16:48:33.444Z,12.60
2019-02-28T16:51:03.869Z,13.07
2019-02-28T16:53:33.079Z,12.50
2019-02-28T16:56:02.618Z,11.27
2019-02-28T16:58:33.297Z,13.83
2019-02-28T17:01:02.548Z,15.27
2019-02-28T17:03:31.760Z,13.30
2019-02-28T17:06:01.628Z,12.53
2019-02-28T17:11:24.657Z,14.47
2019-02-28T17:14:13.787Z,13.37
2019-02-28T17:17:02.776Z,15.53
2019-02-28T17:19:32.468Z,13.03
2019-02-28T17:22:03.396Z,13.57
2019-02-28T17:24:32.607Z,13.13
2019-02-28T17:32:40.473Z,13.97
2019-02-28T17:35:09.868Z,14.13
2019-02-28T17:37:39.298Z,13.63
2019-02-28T17:40:29.392Z,13.47
2019-02-28T17:42:58.724Z,14.63
2019-02-28T17:45:33.712Z,14.00
2019-02-28T17:51:29.818Z,14.97
2019-02-28T17:54:37.119Z,13.93
2019-02-28T18:04:04.933Z,16.10
2019-02-28T18:07:12.388Z,14.37
2019-02-28T18:09:59.459Z,14.60
2019-02-28T18:15:45.935Z,15.23
2019-02-28T18:18:51.968Z,16.10
2019-02-28T18:21:53.494Z,17.73
2019-02-28T18:25:00.799Z,14.07
2019-02-28T18:28:08.059Z,15.17
2019-02-28T18:31:15.385Z,13.40
2019-02-28T18:33:47.112Z,15.07
2019-02-28T18:36:18.635Z,15.63
2019-02-28T18:38:47.847Z,14.47
2019-02-28T18:41:17.103Z,18.23
2019-02-28T18:43:46.327Z,14.97
2019-02-28T18:46:15.594Z,15.90
2019-02-28T18:48:44.810Z,16.47
2019-02-28T18:51:14.098Z,14.23
2019-02-28T18:53:43.314Z,16.23
2019-02-28T18:56:12.706Z,15.33
2019-02-28T18:58:41.909Z,17.50
2019-02-28T19:03:46.350Z,17.90
2019-02-28T19:06:15.678Z,14.70
2019-02-28T19:08:45.242Z,15.30
2019-02-28T19:11:14.518Z,17.87
2019-02-28T19:13:43.729Z,18.33
2019-02-28T19:16:13.017Z,16.93
2019-02-28T19:18:42.279Z,14.40
2019-02-28T19:21:11.507Z,15.50
2019-02-28T19:23:40.817Z,15.33
2019-02-28T19:26:10.014Z,11.67
2019-02-28T19:28:39.321Z,16.83
2019-02-28T19:31:08.549Z,17.20
2019-02-28T19:33:37.960Z,18.87
2019-02-28T19:36:07.172Z,15.87
2019-02-28T19:38:36.450Z,17.90
2019-02-28T19:41:05.815Z,16.90
2019-02-28T19:43:35.078Z,16.47
2019-02-28T19:46:04.284Z,18.70
2019-02-28T19:48:37.125Z,16.17
2019-02-28T19:51:06.335Z,18.23
2019-02-28T19:53:35.620Z,19.67
2019-02-28T19:56:04.839Z,17.03
2019-02-28T19:58:34.096Z,17.10
2019-02-28T20:01:03.305Z,16.20
2019-02-28T20:03:32.562Z,16.27
2019-02-28T20:06:01.788Z,19.17
2019-02-28T20:08:31.067Z,18.23
2019-02-28T20:11:00.695Z,17.17
2019-02-28T20:13:29.974Z,18.03
2019-02-28T20:15:59.182Z,16.70
2019-02-28T20:18:28.499Z,16.67
2019-02-28T20:20:57.712Z,17.50
2019-02-28T20:23:26.967Z,16.13
2019-02-28T20:25:56.328Z,16.07
2019-02-28T20:28:25.550Z,17.60
2019-02-28T20:30:56.097Z,18.60
2019-02-28T20:33:25.328Z,14.30
2019-02-28T20:35:54.650Z,17.97
2019-02-28T20:38:23.850Z,16.83
2019-02-28T20:40:53.355Z,13.70
2019-02-28T20:43:22.839Z,17.17
2019-02-28T20:45:52.105Z,15.63
2019-02-28T20:48:21.322Z,17.37
2019-02-28T20:50:50.613Z,14.03
2019-02-28T20:53:19.810Z,14.27
2019-02-28T20:55:49.068Z,15.57
2019-02-28T20:58:18.689Z,20.00
2019-02-28T21:00:47.976Z,17.10
2019-02-28T21:03:17.286Z,16.93
2019-02-28T21:05:46.632Z,16.50
2019-02-28T21:08:16.319Z,15.70
2019-02-28T21:10:45.640Z,17.53
2019-02-28T21:13:15.183Z,14.17
2019-02-28T21:15:45.068Z,16.77
2019-02-28T21:18:14.338Z,17.13
2019-02-28T21:20:55.870Z,14.27
2019-02-28T21:23:14.603Z,17.43
2019-02-28T21:25:43.886Z,12.07
2019-02-28T21:28:13.105Z,13.63
2019-02-28T21:30:42.386Z,19.23
2019-02-28T21:33:11.616Z,13.27
2019-02-28T21:35:40.918Z,17.53
2019-02-28T21:38:10.389Z,15.90
2019-02-28T21:40:39.642Z,13.40
2019-02-28T21:43:30.379Z,14.67
2019-02-28T21:45:59.650Z,15.93
2019-02-28T21:48:28.917Z,14.57
2019-02-28T21:50:58.184Z,14.07
2019-02-28T21:53:27.427Z,15.60
2019-02-28T21:55:56.951Z,13.83
2019-02-28T21:58:26.176Z,16.63
2019-02-28T22:00:55.465Z,16.33
2019-02-28T22:03:24.760Z,17.10
2019-02-28T22:05:54.080Z,14.20
2019-02-28T22:08:23.852Z,14.30
2019-02-28T22:10:53.389Z,16.30
2019-02-28T22:13:22.596Z,15.03
2019-02-28T22:15:51.970Z,16.70
2019-02-28T22:18:21.214Z,17.13
2019-02-28T22:20:50.469Z,15.80
2019-02-28T22:23:19.965Z,17.13
2019-02-28T22:25:50.012Z,17.73
2019-02-28T22:28:19.237Z,16.97
2019-02-28T22:31:07.750Z,17.10
2019-02-28T22:33:56.010Z,15.33
2019-02-28T22:36:44.226Z,14.83
2019-02-28T22:39:13.825Z,14.87
2019-02-28T22:41:43.090Z,15.47
2019-02-28T22:44:12.584Z,14.67
2019-02-28T22:46:41.881Z,13.33
2019-02-28T22:49:11.088Z,17.53
2019-02-28T22:51:40.336Z,15.00
2019-02-28T22:54:09.558Z,14.77
2019-02-28T22:56:38.764Z,15.03
2019-02-28T22:59:08.042Z,17.47
2019-02-28T23:04:32.884Z,15.33
2019-02-28T23:07:02.137Z,14.63
2019-02-28T23:09:31.363Z,14.03
2019-02-28T23:12:00.633Z,12.20
2019-02-28T23:14:29.839Z,16.37
2019-02-28T23:16:59.050Z,16.87
2019-02-28T23:19:28.359Z,16.30
2019-02-28T23:21:57.572Z,14.97
2019-02-28T23:24:26.850Z,14.27
2019-02-28T23:27:16.597Z,13.77
2019-02-28T23:30:07.455Z,13.70
2019-02-28T23:33:01.551Z,13.43
2019-02-28T23:35:51.148Z,14.13
2019-02-28T23:38:20.415Z,13.33
2019-02-28T23:40:49.610Z,13.97
2019-02-28T23:43:18.861Z,11.87
2019-02-28T23:45:48.074Z,12.80
2019-02-28T23:48:17.343Z,12.43
2019-02-28T23:50:46.854Z,11.83
2019-02-28T23:53:16.142Z,13.17
2019-02-28T23:55:45.345Z,14.40
2019-02-28T23:58:14.557Z,11.10
